Time;durP1;ratioP1;P1;durP2;ratioP2;P2;SDS_P1;SDS_P2;PMS_P1;PMS_P2;Temp;Humidity;BMP_temperature;BMP_pressure;BME280_temperature;BME280_humidity;BME280_pressure;Samples;Min_cycle;Max_cycle;Signal;HPM_P1;HPM_P2
2023/07/28 00:00:53;;;;;;;;;;;;;;;21.73;57.57;100413.97;4853003;29;123477;-76
2023/07/28 00:03:20;;;;;;;;;;;;;;;21.75;57.62;100411.94;4851531;28;124675;-75
2023/07/28 00:05:48;;;;;;;;;;;;;;;21.75;57.62;100411.94;4850329;28;119687;-75
2023/07/28 00:08:15;;;;;;;;;;;;;;;21.75;57.64;100404.72;4845544;29;118727;-74
2023/07/28 00:10:42;;;;;;;;;;;;;;;21.76;57.64;100408.28;4847657;29;123675;-75
2023/07/28 00:13:09;;;;;;;;;;;;;;;21.75;57.73;100406.56;4850662;28;124436;-75
2023/07/28 00:15:37;;;;;;;;;;;;;;;21.76;57.60;100394.78;4852294;29;120826;-75
2023/07/28 00:18:04;;;;;;;;;;;;;;;21.75;57.72;100398.47;4851464;29;119221;-75
2023/07/28 00:20:31;;;;;;;;;;;;;;;21.75;57.63;100390.38;4845134;28;124299;-74
2023/07/28 00:22:58;;;;;;;;;;;;;;;21.74;57.66;100394.09;4849056;28;124529;-75
2023/07/28 00:25:25;;;;;;;;;;;;;;;21.72;57.74;100391.56;4853168;29;119501;-78
2023/07/28 00:27:52;;;;;;;;;;;;;;;21.73;57.73;100400.47;4853908;28;119122;-76
2023/07/28 00:30:21;;;;;;;;;;;;;;;21.73;57.75;100395.09;4852328;29;123533;-75
2023/07/28 00:32:48;;;;;;;;;;;;;;;21.72;57.79;100404.19;4849629;29;124374;-75
2023/07/28 00:35:16;;;;;;;;;;;;;;;21.72;57.78;100401.50;4856136;29;119165;-75
2023/07/28 00:37:43;;;;;;;;;;;;;;;21.71;57.87;100399.78;4856143;29;117876;-75
2023/07/28 00:40:12;;;;;;;;;;;;;;;21.70;57.88;100398.06;4854955;28;123708;-76
2023/07/28 00:42:39;;;;;;;;;;;;;;;21.69;57.82;100396.41;4856152;28;124175;-75
2023/07/28 00:45:06;;;;;;;;;;;;;;;21.69;57.87;100396.41;4849825;28;120223;-76
2023/07/28 00:47:34;;;;;;;;;;;;;;;21.68;57.90;100394.69;4854949;29;119975;-75
2023/07/28 00:50:03;;;;;;;;;;;;;;;21.67;57.88;100393.84;4846132;28;124341;-76
2023/07/28 00:52:30;;;;;;;;;;;;;;;21.66;57.83;100391.31;4854749;29;124171;-76
2023/07/28 00:54:57;;;;;;;;;;;;;;;21.66;57.92;100385.91;4855161;28;119470;-77
2023/07/28 00:57:24;;;;;;;;;;;;;;;21.66;57.99;100392.16;4859141;28;119116;-76
2023/07/28 00:59:53;;;;;;;;;;;;;;;21.65;57.96;100398.53;4843575;29;124282;-76
2023/07/28 01:02:20;;;;;;;;;;;;;;;21.65;57.97;100405.78;4860036;28;125703;-76
2023/07/28 01:04:48;;;;;;;;;;;;;;;21.65;58.07;100411.19;4857783;28;119308;-76
2023/07/28 01:07:34;;;;;;;;;;;;;;;21.67;58.05;100414.56;4853395;28;118164;-76
2023/07/28 01:10:04;;;;;;;;;;;;;;;21.69;58.08;100407.19;4854403;29;124418;-76
2023/07/28 01:12:36;;;;;;;;;;;;;;;21.70;58.17;100415.13;4850247;28;123808;-76
2023/07/28 01:15:03;;;;;;;;;;;;;;;21.72;58.05;100412.28;4856124;28;121048;-75
2023/07/28 01:17:30;;;;;;;;;;;;;;;21.73;58.05;100417.50;4855400;29;120003;-76
2023/07/28 01:19:58;;;;;;;;;;;;;;;21.74;58.06;100415.66;4846998;29;124194;-75
2023/07/28 01:22:36;;;;;;;;;;;;;;;21.75;58.08;100417.34;4851653;28;124862;-76
2023/07/28 01:25:07;;;;;;;;;;;;;;;21.75;58.12;100417.34;4851250;29;119693;-75
2023/07/28 01:27:37;;;;;;;;;;;;;;;21.75;58.03;100415.50;4864659;28;119023;-76
2023/07/28 01:30:04;;;;;;;;;;;;;;;21.77;58.11;100423.44;4851565;28;125124;-75
2023/07/28 01:32:32;;;;;;;;;;;;;;;21.76;58.14;100413.66;4859883;28;124136;-75
2023/07/28 01:34:59;;;;;;;;;;;;;;;21.78;58.07;100414.34;4852826;28;120485;-76
2023/07/28 01:37:27;;;;;;;;;;;;;;;21.79;58.18;100413.34;4852809;29;120178;-75
2023/07/28 01:39:55;;;;;;;;;;;;;;;21.81;58.11;100416.72;4853801;28;123032;-74
2023/07/28 01:42:23;;;;;;;;;;;;;;;21.83;58.23;100419.28;4837882;29;123172;-75
2023/07/28 01:44:50;;;;;;;;;;;;;;;21.84;58.12;100421.81;4848020;29;119554;-76
2023/07/28 01:47:19;;;;;;;;;;;;;;;21.85;58.09;100422.66;4848250;28;119031;-75
2023/07/28 01:49:46;;;;;;;;;;;;;;;21.84;58.08;100427.22;4853386;29;124178;-75
2023/07/28 01:52:14;;;;;;;;;;;;;;;21.85;58.10;100420.84;4848729;29;123106;-75
2023/07/28 01:54:41;;;;;;;;;;;;;;;21.84;58.04;100420.97;4854567;28;119929;-75
2023/07/28 01:57:09;;;;;;;;;;;;;;;21.85;58.04;100426.22;4854834;28;117874;-75
2023/07/28 01:59:36;;;;;;;;;;;;;;;21.84;58.17;100419.13;4853973;28;123418;-75
2023/07/28 02:02:03;;;;;;;;;;;;;;;21.86;58.14;100421.69;4855145;29;123700;-76
2023/07/28 02:04:30;;;;;;;;;;;;;;;21.86;58.17;100419.81;4854074;29;120044;-75
2023/07/28 02:06:57;;;;;;;;;;;;;;;21.86;58.14;100425.22;4858042;28;118651;-75
2023/07/28 02:09:24;;;;;;;;;;;;;;;21.89;58.11;100414.13;4850808;28;124185;-75
2023/07/28 02:11:51;;;;;;;;;;;;;;;21.88;58.19;100412.44;4853857;28;123831;-75
2023/07/28 02:14:18;;;;;;;;;;;;;;;21.89;58.11;100414.13;4854813;28;118425;-76
2023/07/28 02:16:45;;;;;;;;;;;;;;;21.88;58.19;100417.81;4855170;28;118111;-75
2023/07/28 02:19:12;;;;;;;;;;;;;;;21.91;58.18;100412.13;4860351;28;124033;-75
2023/07/28 02:21:39;;;;;;;;;;;;;;;21.92;58.22;100408.41;4845088;28;123172;-75
2023/07/28 02:24:06;;;;;;;;;;;;;;;21.91;58.10;100412.13;4852628;29;121391;-75
2023/07/28 02:26:33;;;;;;;;;;;;;;;21.92;58.21;100419.19;4853178;28;120001;-75
2023/07/28 02:29:02;;;;;;;;;;;;;;;21.95;58.17;100418.06;4853250;28;122518;-76
2023/07/28 02:31:29;;;;;;;;;;;;;;;21.94;58.25;100417.22;4853063;28;122923;-76
2023/07/28 02:33:56;;;;;;;;;;;;;;;21.95;58.13;100418.06;4853768;28;120155;-76
2023/07/28 02:36:23;;;;;;;;;;;;;;;21.94;58.21;100417.22;4848980;28;118432;-76
2023/07/28 02:38:50;;;;;;;;;;;;;;;21.92;58.26;100419.19;4851624;29;124138;-75
2023/07/28 02:41:17;;;;;;;;;;;;;;;21.92;58.28;100424.59;4854476;28;124546;-76
2023/07/28 02:43:44;;;;;;;;;;;;;;;21.93;58.30;100431.69;4852670;28;119938;-76
2023/07/28 02:46:11;;;;;;;;;;;;;;;21.93;58.21;100426.31;4853863;29;117787;-75
2023/07/28 02:48:38;;;;;;;;;;;;;;;21.93;58.27;100431.69;4848720;28;123357;-75
2023/07/28 02:51:05;;;;;;;;;;;;;;;21.93;58.28;100425.47;4854488;28;123539;-75
2023/07/28 02:53:37;;;;;;;;;;;;;;;21.93;58.22;100426.31;4853917;28;118715;-75
2023/07/28 02:56:04;;;;;;;;;;;;;;;21.91;58.27;100428.31;4854091;28;119313;-75
2023/07/28 02:58:32;;;;;;;;;;;;;;;21.89;58.33;100424.91;4847033;29;124486;-76
2023/07/28 03:00:59;;;;;;;;;;;;;;;21.87;58.40;100432.31;4849439;28;123366;-75
2023/07/28 03:03:33;;;;;;;;;;;;;;;21.87;58.27;100426.06;4847407;29;123016;-75
2023/07/28 03:06:01;;;;;;;;;;;;;;;21.87;58.36;100436.84;4851503;28;118460;-75
2023/07/28 03:08:28;;;;;;;;;;;;;;;21.87;58.28;100432.31;4852792;28;124284;-75
2023/07/28 03:11:10;;;;;;;;;;;;;;;21.86;58.39;100446.78;4851075;28;124548;-75
2023/07/28 03:13:37;;;;;;;;;;;;;;;21.85;58.47;100439.72;4853054;29;120619;-75
2023/07/28 03:16:04;;;;;;;;;;;;;;;21.86;58.39;100444.09;4851495;28;120125;-76
2023/07/28 03:18:32;;;;;;;;;;;;;;;21.86;58.38;100452.19;4858527;28;123620;-75
2023/07/28 03:20:59;;;;;;;;;;;;;;;21.86;58.41;100436.00;4854104;28;124736;-75
2023/07/28 03:23:26;;;;;;;;;;;;;;;21.86;58.47;100432.47;4848278;28;118783;-75
2023/07/28 03:25:53;;;;;;;;;;;;;;;21.86;58.41;100430.59;4853015;28;118387;-75
2023/07/28 03:28:20;;;;;;;;;;;;;;;21.84;58.44;100432.59;4852866;29;125816;-75
2023/07/28 03:30:47;;;;;;;;;;;;;;;21.84;58.49;100432.59;4843825;29;124111;-76
2023/07/28 03:33:14;;;;;;;;;;;;;;;21.85;58.47;100433.44;4852281;29;119554;-75
2023/07/28 03:35:41;;;;;;;;;;;;;;;21.84;58.48;100426.38;4847811;29;119403;-74
2023/07/28 03:38:10;;;;;;;;;;;;;;;21.85;58.56;100426.22;4841682;29;124291;-75
2023/07/28 03:40:39;;;;;;;;;;;;;;;21.82;58.49;100434.63;4846849;29;123457;-75
2023/07/28 03:43:06;;;;;;;;;;;;;;;21.83;58.48;100440.84;4846676;29;118587;-74
2023/07/28 03:45:33;;;;;;;;;;;;;;;21.83;58.69;100439.03;4841043;28;119599;-74
2023/07/28 03:48:00;;;;;;;;;;;;;;;21.83;58.56;100448.94;4847004;28;123392;-73
2023/07/28 03:50:28;;;;;;;;;;;;;;;21.82;58.61;100450.78;4845415;29;124701;-74
2023/07/28 03:52:55;;;;;;;;;;;;;;;21.83;58.57;100452.50;4841327;29;119669;-74
2023/07/28 03:55:21;;;;;;;;;;;;;;;21.83;58.58;100457.03;4850382;28;118037;-74
2023/07/28 03:57:48;;;;;;;;;;;;;;;21.82;58.51;100450.78;4843875;29;124534;-74
2023/07/28 04:00:15;;;;;;;;;;;;;;;21.81;58.64;100453.63;4850585;29;123159;-74
2023/07/28 04:02:42;;;;;;;;;;;;;;;21.81;58.56;100459.88;4852427;28;121067;-74
2023/07/28 04:05:10;;;;;;;;;;;;;;;21.81;58.62;100453.63;4849288;28;119859;-74
2023/07/28 04:07:37;;;;;;;;;;;;;;;21.81;58.63;100459.88;4852696;28;126024;-75
2023/07/28 04:10:04;;;;;;;;;;;;;;;21.81;58.70;100454.47;4847832;28;124659;-75
2023/07/28 04:12:31;;;;;;;;;;;;;;;21.81;58.72;100459.88;4851009;28;118848;-75
2023/07/28 04:14:58;;;;;;;;;;;;;;;21.82;58.71;100456.19;4848771;28;117784;-75
2023/07/28 04:17:27;;;;;;;;;;;;;;;21.83;58.71;100457.88;4852740;29;123126;-75
2023/07/28 04:19:54;;;;;;;;;;;;;;;21.83;58.77;100457.88;4860406;28;123660;-75
2023/07/28 04:22:22;;;;;;;;;;;;;;;21.84;58.69;100464.13;4849481;28;118653;-75
2023/07/28 04:24:52;;;;;;;;;;;;;;;21.83;58.68;100465.97;4852741;28;117763;-76
2023/07/28 04:27:19;;;;;;;;;;;;;;;21.84;58.77;100470.34;4847584;28;125357;-75
2023/07/28 04:29:47;;;;;;;;;;;;;;;21.84;58.73;100473.06;4847467;29;123614;-75
2023/07/28 04:32:19;;;;;;;;;;;;;;;21.85;58.68;100471.19;4849461;29;118830;-75
2023/07/28 04:34:47;;;;;;;;;;;;;;;21.85;58.79;100465.81;4850053;29;118059;-76
2023/07/28 04:37:32;;;;;;;;;;;;;;;21.86;58.78;100467.50;4844638;28;124098;-76
2023/07/28 04:40:02;;;;;;;;;;;;;;;21.87;58.83;100463.81;4853938;28;123458;-76
2023/07/28 04:42:34;;;;;;;;;;;;;;;21.87;58.79;100467.38;4857711;28;118558;-76
2023/07/28 04:45:02;;;;;;;;;;;;;;;21.89;58.82;100473.44;4852686;28;118595;-76
2023/07/28 04:47:30;;;;;;;;;;;;;;;21.91;58.78;100476.84;4853059;28;123443;-76
2023/07/28 04:49:57;;;;;;;;;;;;;;;21.93;58.84;100479.41;4848817;29;124471;-74
2023/07/28 04:52:46;;;;;;;;;;;;;;;21.94;58.79;100476.56;4853908;29;120644;-75
2023/07/28 04:55:34;;;;;;;;;;;;;;;21.97;58.86;100470.00;4848553;29;120451;-75
2023/07/28 04:58:01;;;;;;;;;;;;;;;21.99;58.85;100473.38;4848591;29;124570;-74
2023/07/28 05:00:39;;;;;;;;;;;;;;;22.01;58.89;100465.16;4845267;29;123227;-74
2023/07/28 05:03:06;;;;;;;;;;;;;;;22.02;58.84;100462.31;4851598;28;119029;-74
2023/07/28 05:05:38;;;;;;;;;;;;;;;22.02;58.81;100466.81;4849136;29;118249;-74
2023/07/28 05:08:07;;;;;;;;;;;;;;;22.03;58.96;100463.16;4851596;29;124113;-74
2023/07/28 05:10:34;;;;;;;;;;;;;;;22.04;58.98;100462.13;4849264;28;123230;-74
2023/07/28 05:13:04;;;;;;;;;;;;;;;22.07;58.84;100469.91;4851960;29;118646;-74
2023/07/28 05:15:31;;;;;;;;;;;;;;;22.10;58.87;100475.03;4861269;28;118348;-74
2023/07/28 05:17:59;;;;;;;;;;;;;;;22.10;58.88;100475.03;4854401;29;124689;-73
2023/07/28 05:20:39;;;;;;;;;;;;;;;22.10;58.80;100486.66;4850301;29;123864;-74
2023/07/28 05:23:12;;;;;;;;;;;;;;;22.13;58.93;100496.28;4838891;29;118653;-74
2023/07/28 05:25:41;;;;;;;;;;;;;;;22.15;58.93;100499.66;4852843;29;117964;-75
2023/07/28 05:28:08;;;;;;;;;;;;;;;22.16;58.85;100501.38;4854409;28;123073;-75
2023/07/28 05:30:38;;;;;;;;;;;;;;;22.18;58.78;100499.38;4847481;29;123784;-74
2023/07/28 05:33:05;;;;;;;;;;;;;;;22.16;58.89;100506.78;4855274;28;118897;-75
2023/07/28 05:36:03;;;;;;;;;;;;;;;22.19;58.81;100506.47;4853271;28;120656;-74
2023/07/28 05:38:33;;;;;;;;;;;;;;;22.18;58.90;100520.94;4848630;29;123978;-74
2023/07/28 05:41:03;;;;;;;;;;;;;;;22.19;58.87;100517.25;4858390;28;125003;-74
2023/07/28 05:43:30;;;;;;;;;;;;;;;22.21;58.91;100520.66;4849942;28;119499;-74
2023/07/28 05:45:59;;;;;;;;;;;;;;;22.22;59.00;100522.34;4850083;28;118890;-76
2023/07/28 05:48:29;;;;;;;;;;;;;;;22.20;58.87;100518.94;4854191;29;123468;-74
2023/07/28 05:50:56;;;;;;;;;;;;;;;22.19;58.84;100525.34;4845408;28;123252;-73
2023/07/28 05:53:23;;;;;;;;;;;;;;;22.20;58.92;100529.75;4853956;29;118901;-74
2023/07/28 05:55:54;;;;;;;;;;;;;;;22.22;59.06;100530.44;4854615;29;117732;-74
2023/07/28 05:58:22;;;;;;;;;;;;;;;22.24;58.98;100531.13;4854138;29;123416;-73
2023/07/28 06:00:49;;;;;;;;;;;;;;;22.25;59.00;100532.88;4851799;29;124354;-73
2023/07/28 06:03:36;;;;;;;;;;;;;;;22.28;59.03;100529.88;4849193;29;120969;-73
2023/07/28 06:06:10;;;;;;;;;;;;;;;22.30;58.93;100541.34;4852210;28;121173;-73
2023/07/28 06:08:38;;;;;;;;;;;;;;;22.30;58.99;100541.34;4849540;28;124676;-73
2023/07/28 06:11:05;;;;;;;;;;;;;;;22.32;59.11;100539.34;4854040;28;124105;-73
2023/07/28 06:13:32;;;;;;;;;;;;;;;22.34;59.09;100537.34;4849999;28;118672;-71
2023/07/28 06:16:01;;;;;;;;;;;;;;;22.37;59.20;100535.34;4866072;28;118110;-75
2023/07/28 06:18:28;;;;;;;;;;;;;;;22.38;59.04;100537.00;4839232;29;123912;-73
2023/07/28 06:21:07;;;;;;;;;;;;;;;22.41;59.04;100534.03;4853562;29;123660;-73
2023/07/28 06:23:36;;;;;;;;;;;;;;;22.44;58.98;100531.03;4848683;28;119424;-71
2023/07/28 06:26:03;;;;;;;;;;;;;;;22.46;59.02;100529.03;4841135;29;118019;-71
2023/07/28 06:28:31;;;;;;;;;;;;;;;22.46;59.02;100534.41;4858452;28;126216;-71
2023/07/28 06:30:58;;;;;;;;;;;;;;;22.48;58.98;100535.94;4850187;28;123657;-71
2023/07/28 06:33:28;;;;;;;;;;;;;;;22.51;59.10;100548.31;4847133;29;120018;-71
2023/07/28 06:35:55;;;;;;;;;;;;;;;22.53;59.23;100546.31;4844677;28;119606;-71
2023/07/28 06:38:22;;;;;;;;;;;;;;;22.58;59.04;100543.97;4842243;29;123925;-71
2023/07/28 06:40:49;;;;;;;;;;;;;;;22.61;59.08;100559.88;4845715;28;123178;-71
2023/07/28 06:43:19;;;;;;;;;;;;;;;22.62;58.92;100550.78;4854878;28;120505;-71
2023/07/28 06:45:50;;;;;;;;;;;;;;;22.63;58.94;100557.84;4850064;28;117807;-71
2023/07/28 06:48:17;;;;;;;;;;;;;;;22.65;59.12;100555.00;4849094;29;123446;-72
2023/07/28 06:50:45;;;;;;;;;;;;;;;22.68;59.16;100560.09;4843892;28;123139;-71
2023/07/28 06:53:12;;;;;;;;;;;;;;;22.70;59.10;100553.53;4845618;29;117859;-72
2023/07/28 06:55:39;;;;;;;;;;;;;;;22.72;59.13;100567.72;4854140;28;119337;-70
2023/07/28 06:58:06;;;;;;;;;;;;;;;22.76;59.11;100562.03;4853622;28;123880;-72
2023/07/28 07:00:33;;;;;;;;;;;;;;;22.80;59.07;100563.41;4853023;28;123396;-71
2023/07/28 07:03:01;;;;;;;;;;;;;;;22.83;59.11;100565.78;4842956;29;118681;-71
2023/07/28 07:05:28;;;;;;;;;;;;;;;22.86;59.27;100569.03;4845589;28;117999;-71
2023/07/28 07:07:55;;;;;;;;;;;;;;;22.90;59.23;100569.56;4846789;29;125081;-71
2023/07/28 07:10:22;;;;;;;;;;;;;;;22.94;59.20;100576.34;4844270;28;124027;-72
2023/07/28 07:12:49;;;;;;;;;;;;;;;22.99;59.21;100574.03;4848627;28;119776;-72
2023/07/28 07:15:16;;;;;;;;;;;;;;;23.02;59.07;100589.94;4842011;28;119401;-72
2023/07/28 07:17:43;;;;;;;;;;;;;;;23.04;59.15;100587.94;4837228;29;124885;-72
2023/07/28 07:20:11;;;;;;;;;;;;;;;23.06;59.19;100591.34;4843598;28;123819;-72
2023/07/28 07:22:38;;;;;;;;;;;;;;;23.08;59.17;100589.31;4852698;29;120295;-72
2023/07/28 07:25:07;;;;;;;;;;;;;;;23.12;59.11;100595.28;4850956;29;120291;-72
2023/07/28 07:27:34;;;;;;;;;;;;;;;23.16;59.28;100595.81;4849918;28;124893;-72
2023/07/28 07:30:01;;;;;;;;;;;;;;;;;;4845279;29;124959;-72
2023/07/28 07:32:27;;;;;;;;;;;;;;;23.23;59.16;100602.28;4846946;29;121304;-72
2023/07/28 07:34:54;;;;;;;;;;;;;;;23.27;59.29;100609.06;4843433;29;119665;-72
2023/07/28 07:37:24;;;;;;;;;;;;;;;23.32;59.31;100606.75;4849579;28;124418;-72
2023/07/28 07:39:51;;;;;;;;;;;;;;;23.35;59.02;100606.41;4845640;28;122968;-71
2023/07/28 07:42:18;;;;;;;;;;;;;;;23.38;58.98;100606.09;4848118;28;119474;-72
2023/07/28 07:44:45;;;;;;;;;;;;;;;23.41;59.22;100605.75;4856351;28;119174;-71
2023/07/28 07:47:14;;;;;;;;;;;;;;;23.43;58.97;100620.00;4843104;29;124188;-72
2023/07/28 07:49:41;;;;;;;;;;;;;;;23.44;59.04;100610.88;4852280;28;122887;-72
2023/07/28 07:52:11;;;;;;;;;;;;;;;23.45;59.00;100612.56;4854453;29;120009;-72
2023/07/28 07:54:38;;;;;;;;;;;;;;;23.48;59.12;100617.66;4852222;28;118866;-72
2023/07/28 07:57:05;;;;;;;;;;;;;;;23.49;59.09;100613.94;4851537;28;124224;-72
2023/07/28 07:59:32;;;;;;;;;;;;;;;23.51;58.92;100617.34;4852832;28;124682;-72
2023/07/28 08:02:02;;;;;;;;;;;;;;;23.55;59.20;100617.03;4854186;28;119608;-72
2023/07/28 08:04:31;;;;;;;;;;;;;;;23.59;59.03;100618.41;4850672;29;118580;-71
2023/07/28 08:06:58;;;;;;;;;;;;;;;23.63;59.20;100619.78;4850426;29;124439;-71
2023/07/28 08:09:25;;;;;;;;;;;;;;;23.69;59.25;100619.13;4851342;28;124505;-72
2023/07/28 08:11:53;;;;;;;;;;;;;;;23.71;58.90;100617.97;4851238;28;120130;-72
2023/07/28 08:14:20;;;;;;;;;;;;;;;23.74;58.98;100622.22;4842866;29;119646;-72
2023/07/28 08:16:47;;;;;;;;;;;;;;;23.75;59.11;100623.88;4847324;28;125729;-71
2023/07/28 08:19:14;;;;;;;;;;;;;;;23.77;59.17;100627.31;4835780;28;124441;-72
2023/07/28 08:21:42;;;;;;;;;;;;;;;23.80;59.01;100629.69;4850461;28;119826;-72
2023/07/28 08:24:09;;;;;;;;;;;;;;;23.82;59.14;100630.38;4843891;29;119160;-71
2023/07/28 08:26:36;;;;;;;;;;;;;;;23.83;58.87;100626.69;4846513;28;124557;-72
2023/07/28 08:29:04;;;;;;;;;;;;;;;23.83;59.05;100632.09;4846795;29;124993;-71
2023/07/28 08:31:31;;;;;;;;;;;;;;;23.84;59.11;100636.47;4843115;28;119636;-71
2023/07/28 08:33:59;;;;;;;;;;;;;;;23.89;58.96;100636.84;4837655;29;120144;-72
2023/07/28 08:36:27;;;;;;;;;;;;;;;23.92;59.02;100640.25;4852325;28;124244;-71
2023/07/28 08:38:54;;;;;;;;;;;;;;;23.95;58.93;100645.34;4847705;28;123220;-71
2023/07/28 08:41:21;;;;;;;;;;;;;;;23.98;58.87;100645.88;4841447;28;119505;-71
2023/07/28 08:43:48;;;;;;;;;;;;;;;24.02;59.10;100647.25;4839412;29;119756;-71
2023/07/28 08:46:15;;;;;;;;;;;;;;;24.05;58.87;100646.06;4853089;29;125400;-71
2023/07/28 08:48:42;;;;;;;;;;;;;;;24.08;58.87;100651.16;4855363;28;123066;-72
2023/07/28 08:51:10;;;;;;;;;;;;;;;24.09;58.77;100653.72;4852789;29;120424;-71
2023/07/28 08:53:37;;;;;;;;;;;;;;;24.11;58.96;100653.53;4852972;28;119043;-71
2023/07/28 08:56:05;;;;;;;;;;;;;;;24.12;58.80;100652.53;4846977;29;125150;-71
2023/07/28 08:58:33;;;;;;;;;;;;;;;24.15;58.90;100652.22;4854086;28;123786;-71
2023/07/28 09:01:03;;;;;;;;;;;;;;;24.17;58.69;100652.06;4853920;29;120455;-71
2023/07/28 09:03:30;;;;;;;;;;;;;;;24.16;58.94;100659.28;4845618;28;120079;-72
2023/07/28 09:06:02;;;;;;;;;;;;;;;24.17;58.84;100661.00;4851972;28;123673;-71
2023/07/28 09:08:32;;;;;;;;;;;;;;;24.19;58.77;100658.97;4854870;29;124029;-71
2023/07/28 09:11:02;;;;;;;;;;;;;;;24.23;58.83;100664.94;4854366;28;119914;-71
2023/07/28 09:13:41;;;;;;;;;;;;;;;24.25;58.97;100663.75;4853013;28;118918;-71
2023/07/28 09:16:18;;;;;;;;;;;;;;;24.29;58.99;100659.69;4856267;29;124186;-71
2023/07/28 09:18:45;;;;;;;;;;;;;;;24.32;58.81;100657.66;4847244;28;124226;-71
2023/07/28 09:21:17;;;;;;;;;;;;;;;24.36;58.84;100659.06;4854548;28;119618;-71
2023/07/28 09:23:44;;;;;;;;;;;;;;;24.39;58.99;100664.13;4841444;29;118895;-71
2023/07/28 09:26:11;;;;;;;;;;;;;;;24.42;58.93;100663.81;4847351;29;123386;-71
2023/07/28 09:28:39;;;;;;;;;;;;;;;24.45;58.75;100668.91;4850027;28;124164;-71
2023/07/28 09:31:06;;;;;;;;;;;;;;;24.46;58.88;100665.16;4850407;29;118794;-71
2023/07/28 09:33:34;;;;;;;;;;;;;;;24.47;58.94;100672.28;4849087;29;119236;-71
2023/07/28 09:36:11;;;;;;;;;;;;;;;24.48;58.93;100657.72;4853604;28;124270;-71
2023/07/28 09:38:40;;;;;;;;;;;;;;;24.48;58.85;100663.97;4854562;28;124000;-71
2023/07/28 09:41:11;;;;;;;;;;;;;;;24.53;58.72;100666.25;4852025;28;120891;-71
2023/07/28 09:43:39;;;;;;;;;;;;;;;24.56;58.67;100670.47;4851131;28;118766;-71
2023/07/28 09:46:08;;;;;;;;;;;;;;;24.56;58.77;100668.59;4851230;28;123049;-71
2023/07/28 09:48:37;;;;;;;;;;;;;;;24.56;58.76;100665.06;4839601;28;124054;-71
2023/07/28 09:51:24;;;;;;;;;;;;;;;24.56;58.99;100659.66;4850136;28;120517;-71
2023/07/28 09:54:04;;;;;;;;;;;;;;;24.60;58.72;100659.16;4849938;29;119708;-71
2023/07/28 09:56:31;;;;;;;;;;;;;;;24.65;58.99;100656.78;4859614;28;124329;-71
2023/07/28 09:58:59;;;;;;;;;;;;;;;24.74;58.86;100667.66;4848854;29;122766;-71
2023/07/28 10:01:26;;;;;;;;;;;;;;;24.81;59.08;100661.41;4851506;29;119440;-71
2023/07/28 10:03:54;;;;;;;;;;;;;;;24.90;59.06;100667.66;4839563;29;118485;-71
2023/07/28 10:06:22;;;;;;;;;;;;;;;25.00;58.95;100667.53;4848860;29;125155;-71
2023/07/28 10:08:49;;;;;;;;;;;;;;;25.11;58.92;100669.91;4841040;28;124041;-71
2023/07/28 10:11:17;;;;;;;;;;;;;;;25.25;59.25;100676.53;4847607;28;119763;-71
2023/07/28 10:13:46;;;;;;;;;;;;;;;25.38;59.18;100671.47;4845551;29;118873;-71
2023/07/28 10:16:16;;;;;;;;;;;;;;;25.50;59.06;100665.69;4849919;28;125203;-71
2023/07/28 10:18:54;;;;;;;;;;;;;;;25.60;58.83;100669.09;4852157;28;124378;-71
2023/07/28 10:21:21;;;;;;;;;;;;;;;25.70;58.65;100675.16;4842820;28;119869;-71
2023/07/28 10:23:55;;;;;;;;;;;;;;;25.78;58.87;100683.28;4841926;28;119024;-71
2023/07/28 10:26:34;;;;;;;;;;;;;;;25.82;58.56;100673.78;4841728;28;124049;-71
2023/07/28 10:29:08;;;;;;;;;;;;;;;25.88;58.46;100674.09;4842755;29;123878;-71
2023/07/28 10:31:36;;;;;;;;;;;;;;;25.93;58.36;100674.47;4846732;28;119773;-71
2023/07/28 10:34:07;;;;;;;;;;;;;;;25.97;58.34;100673.94;4847681;29;118811;-71
2023/07/28 10:36:35;;;;;;;;;;;;;;;26.06;58.30;100668.50;4840786;28;124398;-71
2023/07/28 10:39:07;;;;;;;;;;;;;;;26.12;58.52;100674.06;4852478;28;122235;-71
2023/07/28 10:41:35;;;;;;;;;;;;;;;26.21;58.27;100675.72;4852372;29;121404;-71
2023/07/28 10:44:02;;;;;;;;;;;;;;;26.29;58.34;100676.72;4850718;29;119621;-71
2023/07/28 10:46:29;;;;;;;;;;;;;;;26.35;58.32;100674.16;4851839;29;124408;-71
2023/07/28 10:49:03;;;;;;;;;;;;;;;26.44;58.33;100672.22;4846105;28;124204;-71
2023/07/28 10:51:33;;;;;;;;;;;;;;;26.55;58.60;100669.13;4839068;29;119308;-71
2023/07/28 10:54:02;;;;;;;;;;;;;;;26.72;58.48;100669.06;4843596;29;118312;-71
2023/07/28 10:56:29;;;;;;;;;;;;;;;26.87;58.29;100664.53;4850343;29;123712;-71
2023/07/28 10:58:58;;;;;;;;;;;;;;;27.03;58.38;100670.88;4849896;29;124124;-71
2023/07/28 11:01:36;;;;;;;;;;;;;;;27.11;58.16;100668.13;4841935;28;119452;-71
2023/07/28 11:04:06;;;;;;;;;;;;;;;27.16;57.94;100662.97;4848673;29;118491;-71
2023/07/28 11:06:33;;;;;;;;;;;;;;;27.21;58.16;100671.44;4841566;29;125105;-71
2023/07/28 11:09:00;;;;;;;;;;;;;;;27.29;58.08;100665.94;4857108;28;124112;-71
2023/07/28 11:11:27;;;;;;;;;;;;;;;27.37;57.74;100668.59;4844235;28;120575;-71
2023/07/28 11:13:54;;;;;;;;;;;;;;;27.44;57.93;100667.88;4843950;29;119296;-73
2023/07/28 11:16:22;;;;;;;;;;;;;;;27.48;57.72;100669.19;4845039;28;124861;-71
2023/07/28 11:18:49;;;;;;;;;;;;;;;27.48;57.63;100669.19;4849694;28;124265;-72
2023/07/28 11:21:21;;;;;;;;;;;;;;;27.48;57.48;100669.19;4853298;29;119436;-73
2023/07/28 11:23:48;;;;;;;;;;;;;;;27.48;57.66;100674.63;4850322;29;119161;-73
2023/07/28 11:26:17;;;;;;;;;;;;;;;27.45;57.41;100661.41;4840946;28;124180;-72
2023/07/28 11:28:44;;;;;;;;;;;;;;;27.43;57.18;100660.75;4845850;28;124081;-70
2023/07/28 11:31:13;;;;;;;;;;;;;;;27.41;57.40;100662.78;4851231;28;121458;-72
2023/07/28 11:33:40;;;;;;;;;;;;;;;27.40;57.44;100677.44;4850428;29;119969;-70
2023/07/28 11:36:07;;;;;;;;;;;;;;;27.40;57.31;100671.97;4844192;28;125411;-71
2023/07/28 11:38:35;;;;;;;;;;;;;;;27.40;57.28;100658.38;4852110;29;124284;-69
2023/07/28 11:41:02;;;;;;;;;;;;;;;27.44;57.48;100656.97;4842400;29;118568;-71
2023/07/28 11:43:29;;;;;;;;;;;;;;;27.52;57.48;100654.16;4852193;28;118886;-71
2023/07/28 11:45:56;;;;;;;;;;;;;;;27.56;57.67;100656.34;4848419;28;125076;-72
2023/07/28 11:48:29;;;;;;;;;;;;;;;27.60;57.60;100656.84;4854896;28;125651;-71
2023/07/28 11:50:56;;;;;;;;;;;;;;;27.66;57.49;100666.97;4848995;28;120234;-71
2023/07/28 11:53:24;;;;;;;;;;;;;;;27.73;57.45;100665.19;4849834;28;118748;-71
2023/07/28 11:55:51;;;;;;;;;;;;;;;27.85;57.56;100664.75;4849922;29;124455;-71
2023/07/28 11:58:20;;;;;;;;;;;;;;;27.97;57.55;100657.81;4843850;28;124153;-71
2023/07/28 12:00:50;;;;;;;;;;;;;;;28.05;57.47;100655.00;4848270;28;119347;-71
2023/07/28 12:03:17;;;;;;;;;;;;;;;28.15;57.52;100652.84;4845744;28;118963;-71
2023/07/28 12:05:59;;;;;;;;;;;;;;;28.26;57.53;100651.50;4845085;29;124414;-71
2023/07/28 12:08:41;;;;;;;;;;;;;;;28.42;57.43;100650.44;4846618;28;124016;-72
2023/07/28 12:11:13;;;;;;;;;;;;;;;28.54;57.42;100643.50;4846962;28;119066;-71
2023/07/28 12:13:50;;;;;;;;;;;;;;;28.65;57.40;100644.03;4847955;28;119372;-71
2023/07/28 12:16:52;;;;;;;;;;;;;;;28.72;57.01;100651.22;4846659;29;123457;-71
2023/07/28 12:19:22;;;;;;;;;;;;;;;28.85;57.17;100650.53;4833678;29;122981;-71
2023/07/28 12:21:49;;;;;;;;;;;;;;;28.93;57.07;100649.56;4860578;28;120234;-72
2023/07/28 12:24:16;;;;;;;;;;;;;;;28.96;56.60;100651.91;4848688;28;119764;-72
2023/07/28 12:26:45;;;;;;;;;;;;;;;28.95;56.75;100660.28;4842038;28;123806;-72
2023/07/28 12:29:13;;;;;;;;;;;;;;;28.91;56.50;100666.13;4843388;29;124194;-72
2023/07/28 12:31:40;;;;;;;;;;;;;;;28.89;56.47;100657.28;4843534;29;119560;-72
2023/07/28 12:34:10;;;;;;;;;;;;;;;28.92;56.59;100656.06;4853621;29;118758;-72
2023/07/28 12:36:51;;;;;;;;;;;;;;;28.94;56.31;100648.53;4842498;28;124245;-73